Time;durP1;ratioP1;P1;durP2;ratioP2;P2;SDS_P1;SDS_P2;PMS_P1;PMS_P2;Temp;Humidity;BMP_temperature;BMP_pressure;BME280_temperature;BME280_humidity;BME280_pressure;Samples;Min_cycle;Max_cycle;Signal;HPM_P1;HPM_P2
2021/06/26 08:18:51;;;;;;;6.15;5.55;;;;;;;22.72;62.47;97003.78;5107184;27;20560;-66
2021/06/26 08:30:35;;;;;;;6.15;5.55;;;;;;;23.40;58.46;96996.69;5125850;27;20612;-65
2021/06/26 08:39:26;;;;;;;6.20;5.22;;;;;;;23.25;59.22;96997.00;5128540;27;20605;-59
2021/06/26 08:41:51;;;;;;;5.82;5.20;;;;;;;23.51;58.09;96998.06;5110785;28;20217;-59
2021/06/26 08:44:19;;;;;;;6.90;6.18;;;;;;;23.63;57.63;96997.50;5116000;28;20191;-57
2021/06/26 08:46:47;;;;;;;6.85;5.63;;;;;;;23.32;56.96;97000.88;5109783;28;20270;-60
2021/06/26 08:49:12;;;;;;;6.07;5.50;;;;;;;23.54;56.66;96994.75;5107021;28;20785;-57
2021/06/26 08:51:39;;;;;;;6.75;5.47;;;;;;;23.04;58.41;96999.34;5125385;28;20203;-59
2021/06/26 08:54:14;;;;;;;5.93;5.43;;;;;;;23.43;56.41;96996.84;5102467;28;20284;-58
2021/06/26 08:56:42;;;;;;;5.88;5.28;;;;;;;23.30;56.65;96992.34;5127919;28;20253;-57
2021/06/26 08:59:07;;;;;;;5.97;5.07;;;;;;;23.91;56.54;96988.22;5115886;28;20196;-58
2021/06/26 09:01:40;;;;;;;6.32;5.60;;;;;;;24.39;53.35;96983.75;5125624;28;20185;-58
2021/06/26 09:04:08;;;;;;;6.45;4.72;;;;;;;23.84;54.33;96986.00;5100174;28;20187;-58
2021/06/26 09:06:49;;;;;;;5.97;5.38;;;;;;;23.30;56.51;96996.91;5120068;28;20577;-58
2021/06/26 09:09:14;;;;;;;5.97;5.43;;;;;;;23.77;54.57;96992.88;5115009;28;20215;-58
2021/06/26 09:11:40;;;;;;;5.75;5.13;;;;;;;23.08;56.07;96994.97;5125469;28;20222;-57
2021/06/26 09:14:19;;;;;;;5.72;5.22;;;;;;;23.55;54.82;96986.44;5114252;28;20176;-58
2021/06/26 09:16:52;;;;;;;6.38;5.70;;;;;;;23.57;53.84;96996.84;5111277;28;20217;-57
2021/06/26 09:19:18;;;;;;;6.22;5.35;;;;;;;22.90;55.91;96987.91;5123527;28;20222;-57
2021/06/26 09:21:55;;;;;;;6.55;5.93;;;;;;;22.92;55.49;96989.19;5115706;28;20184;-54
2021/06/26 09:24:20;;;;;;;6.07;5.53;;;;;;;23.80;53.81;96986.88;5119861;28;20171;-59
2021/06/26 09:26:57;;;;;;;5.47;4.97;;;;;;;23.56;53.70;96989.91;5119240;28;20203;-61
2021/06/26 09:29:23;;;;;;;6.20;5.20;;;;;;;22.66;55.31;96988.13;5108875;28;20194;-56
2021/06/26 09:31:51;;;;;;;6.10;5.47;;;;;;;23.06;54.00;96978.47;5118367;28;20179;-61
2021/06/26 09:34:17;;;;;;;5.65;4.80;;;;;;;23.62;52.57;96994.03;5109963;28;20492;-58
2021/06/26 09:36:43;;;;;;;6.80;5.53;;;;;;;22.99;53.28;96983.44;5115029;28;20188;-58
2021/06/26 09:39:11;;;;;;;4.85;4.35;;;;;;;22.88;54.28;96990.88;5105823;28;20235;-61
2021/06/26 09:41:39;;;;;;;6.68;5.25;;;;;;;22.64;56.29;96990.28;5122313;28;20187;-61
2021/06/26 09:44:12;;;;;;;17.98;6.65;;;;;;;23.11;56.31;96987.16;5119191;28;20213;-59
2021/06/26 09:46:49;;;;;;;8.93;8.13;;;;;;;23.77;53.63;96982.94;5102692;28;20188;-61
2021/06/26 09:49:24;;;;;;;5.43;4.93;;;;;;;23.73;52.05;96976.63;5119852;28;20272;-60
2021/06/26 09:52:00;;;;;;;5.30;4.80;;;;;;;23.78;51.94;96981.06;5095911;28;20172;-62
2021/06/26 09:54:27;;;;;;;5.57;5.05;;;;;;;23.91;51.63;96975.63;5096462;28;20172;-60
2021/06/26 09:56:52;;;;;;;5.80;5.30;;;;;;;23.40;52.55;96980.63;5099095;28;20188;-61
2021/06/26 09:59:18;;;;;;;5.30;4.80;;;;;;;23.75;52.15;96974.41;5103160;28;20212;-60
2021/06/26 10:01:46;;;;;;;5.28;4.78;;;;;;;24.06;51.90;96970.97;5095093;28;20184;-59
2021/06/26 10:04:16;;;;;;;5.20;4.70;;;;;;;24.80;51.50;96961.13;5106184;28;21157;-60
2021/06/26 10:06:42;;;;;;;5.32;4.85;;;;;;;24.96;50.04;96964.97;5102363;28;20180;-60
2021/06/26 10:09:08;;;;;;;5.07;4.57;;;;;;;25.05;49.18;96965.75;5109193;28;20240;-60
2021/06/26 10:11:35;;;;;;;6.30;4.97;;;;;;;24.40;50.48;96960.41;5107389;28;20215;-59
2021/06/26 10:14:03;;;;;;;4.95;4.55;;;;;;;24.18;51.59;96957.81;5085327;28;20200;-60
2021/06/26 10:16:30;;;;;;;5.38;4.45;;;;;;;22.98;54.88;96955.09;5109065;28;20184;-59
2021/06/26 10:19:07;;;;;;;5.13;4.68;;;;;;;23.19;54.27;96956.22;5097589;28;20211;-60
2021/06/26 10:21:33;;;;;;;5.20;4.70;;;;;;;23.55;53.30;96948.16;5104562;28;20192;-60
2021/06/26 10:24:00;;;;;;;4.80;4.40;;;;;;;24.08;52.67;96945.44;5099978;28;20230;-60
2021/06/26 10:26:27;;;;;;;5.15;4.65;;;;;;;23.87;50.89;96941.72;5090883;28;20543;-60
2021/06/26 10:29:04;;;;;;;6.63;4.93;;;;;;;23.88;52.81;96948.66;5108938;28;20398;-60
2021/06/26 10:31:34;;;;;;;5.53;5.03;;;;;;;24.40;52.46;96942.47;5097756;28;20169;-60
2021/06/26 10:34:11;;;;;;;5.00;4.60;;;;;;;24.57;50.75;96941.72;5098593;28;20544;-60
2021/06/26 10:36:37;;;;;;;4.97;4.57;;;;;;;24.72;51.59;96943.94;5104994;28;20222;-61
2021/06/26 10:39:16;;;;;;;5.05;4.50;;;;;;;24.34;50.84;96945.59;5093530;28;20625;-60
2021/06/26 10:41:41;;;;;;;4.50;4.20;;;;;;;24.68;50.34;96939.53;5089930;28;20179;-60
2021/06/26 10:44:07;;;;;;;4.80;4.40;;;;;;;25.00;49.71;96938.31;5095475;28;20790;-59
2021/06/26 10:46:33;;;;;;;5.03;4.53;;;;;;;25.02;49.40;96947.59;5098090;28;20184;-61
2021/06/26 10:49:03;;;;;;;5.68;5.18;;;;;;;25.08;50.11;96932.94;5095949;28;20711;-59
2021/06/26 10:51:34;;;;;;;5.00;4.60;;;;;;;25.58;47.67;96937.78;5081439;28;20209;-62
2021/06/26 10:54:09;;;;;;;7.97;7.18;;;;;;;25.85;47.55;96939.34;5108218;28;20187;-58
2021/06/26 10:56:35;;;;;;;6.85;6.25;;;;;;;26.51;46.47;96928.94;5095195;28;20184;-60
2021/06/26 10:59:12;;;;;;;4.97;4.57;;;;;;;27.28;45.43;96921.09;5100966;28;20211;-58
2021/06/26 11:01:38;;;;;;;6.57;5.90;;;;;;;27.01;45.08;96927.03;5089593;28;20168;-58
2021/06/26 11:04:12;;;;;;;6.85;6.25;;;;;;;27.59;43.59;96925.25;5108577;28;20188;-59
2021/06/26 11:06:38;;;;;;;5.47;5.00;;;;;;;27.75;42.89;96920.06;5101231;28;20182;-60
2021/06/26 11:09:07;;;;;;;5.32;4.47;;;;;;;26.99;43.52;96925.78;5104784;28;20188;-60
2021/06/26 11:11:34;;;;;;;4.00;3.70;;;;;;;26.82;44.86;96924.78;5108707;28;20184;-60
2021/06/26 11:14:26;;;;;;;4.63;3.75;;;;;;;26.78;44.67;96926.56;5097304;28;20188;-60
2021/06/26 11:16:56;;;;;;;4.38;4.00;;;;;;;25.96;46.71;96938.66;5100195;28;20283;-61
2021/06/26 11:19:23;;;;;;;4.55;4.15;;;;;;;25.17;47.64;96930.25;5106172;28;20211;-60
2021/06/26 11:21:51;;;;;;;4.85;4.35;;;;;;;24.99;48.18;96934.03;5092255;28;20217;-61
2021/06/26 11:24:18;;;;;;;4.88;3.88;;;;;;;25.87;46.86;96935.19;5100095;28;20195;-60
2021/06/26 11:26:49;;;;;;;4.72;4.32;;;;;;;26.50;44.67;96930.84;5104094;28;20180;-60
2021/06/26 11:29:42;;;;;;;4.43;4.03;;;;;;;26.43;45.56;96933.25;5101075;28;20180;-60
2021/06/26 11:32:23;;;;;;;5.60;4.72;;;;;;;25.70;46.88;96932.56;5089361;28;20192;-60
2021/06/26 11:34:54;;;;;;;4.85;4.45;;;;;;;25.17;47.34;96936.41;5092573;28;20180;-60
2021/06/26 11:37:20;;;;;;;4.85;4.45;;;;;;;25.32;48.08;96935.13;5092471;28;20317;-61
2021/06/26 11:39:46;;;;;;;4.60;4.25;;;;;;;25.85;46.88;96931.28;5102230;28;20192;-60
2021/06/26 11:42:19;;;;;;;4.25;3.85;;;;;;;26.24;46.92;96930.19;5091275;28;20203;-59
2021/06/26 11:44:46;;;;;;;4.38;3.97;;;;;;;26.11;45.79;96926.59;5096206;28;20176;-59
2021/06/26 11:47:12;;;;;;;3.85;3.55;;;;;;;25.67;46.46;96919.78;5096458;28;20183;-59
2021/06/26 11:49:41;;;;;;;4.13;3.83;;;;;;;25.38;48.70;96917.75;5105881;28;20271;-59
2021/06/26 11:52:08;;;;;;;4.25;3.92;;;;;;;25.40;47.67;96920.94;5105346;28;20215;-58
2021/06/26 11:54:34;;;;;;;4.70;4.30;;;;;;;25.77;47.00;96911.38;5097039;28;20214;-59
2021/06/26 11:56:59;;;;;;;6.13;4.57;;;;;;;26.76;44.69;96912.63;5094070;28;20176;-59
2021/06/26 11:59:30;;;;;;;4.72;4.30;;;;;;;26.36;45.38;96909.56;5093194;28;20321;-58
2021/06/26 12:01:55;;;;;;;5.15;4.70;;;;;;;25.69;47.83;96906.06;5096126;28;20259;-60
2021/06/26 12:04:28;;;;;;;4.38;4.07;;;;;;;25.30;48.21;96909.75;5107370;28;20325;-59
2021/06/26 12:06:54;;;;;;;4.93;4.43;;;;;;;25.78;47.66;96909.50;5098311;28;20211;-60
2021/06/26 12:09:23;;;;;;;4.57;4.20;;;;;;;25.34;46.68;96903.41;5101900;28;20215;-59
2021/06/26 12:11:50;;;;;;;4.80;4.38;;;;;;;25.21;48.27;96907.03;5095573;28;20195;-59
2021/06/26 12:14:24;;;;;;;6.78;4.22;;;;;;;25.00;49.29;96898.88;5107035;28;20213;-59
2021/06/26 12:16:53;;;;;;;4.28;3.92;;;;;;;25.21;48.01;96891.75;5099403;28;20180;-59
2021/06/26 12:19:29;;;;;;;4.90;4.50;;;;;;;24.56;50.04;96893.75;5107942;28;20216;-60
2021/06/26 12:21:55;;;;;;;4.78;4.38;;;;;;;24.62;50.33;96893.31;5105671;28;20509;-61
2021/06/26 12:24:41;;;;;;;5.25;4.75;;;;;;;24.96;49.71;96889.09;5100091;28;20198;-59
2021/06/26 12:27:08;;;;;;;4.40;4.00;;;;;;;24.99;50.23;96883.88;5110802;28;20180;-59
2021/06/26 12:29:35;;;;;;;4.82;4.43;;;;;;;25.09;48.54;96890.81;5091738;28;20236;-59
2021/06/26 12:32:01;;;;;;;4.30;3.90;;;;;;;24.95;48.25;96884.81;5096174;28;20541;-59
2021/06/26 12:34:26;;;;;;;4.40;4.00;;;;;;;24.90;48.85;96879.63;5098677;28;20189;-59
2021/06/26 12:36:57;;;;;;;4.13;3.72;;;;;;;25.17;48.98;96880.06;5102350;28;20528;-60
2021/06/26 12:39:34;;;;;;;4.28;3.95;;;;;;;25.26;47.71;96877.38;5089902;28;20231;-61
2021/06/26 12:42:05;;;;;;;3.80;3.50;;;;;;;25.19;46.79;96874.38;5096234;28;20175;-60
2021/06/26 12:44:31;;;;;;;3.85;3.55;;;;;;;24.80;47.39;96881.47;5099086;28;20187;-59
2021/06/26 12:46:57;;;;;;;4.90;4.50;;;;;;;24.86;47.30;96876.72;5104534;28;20180;-60
2021/06/26 12:49:34;;;;;;;3.95;3.63;;;;;;;25.34;47.69;96876.56;5095258;28;20184;-59
2021/06/26 12:52:20;;;;;;;4.22;3.83;;;;;;;26.10;46.28;96873.94;5102049;28;20176;-60
2021/06/26 12:54:53;;;;;;;3.90;3.60;;;;;;;26.75;44.20;96867.25;5102947;28;20340;-59
2021/06/26 12:57:20;;;;;;;4.03;3.72;;;;;;;25.99;45.04;96868.16;5092188;28;20191;-61
2021/06/26 12:59:45;;;;;;;4.30;3.90;;;;;;;25.63;46.59;96870.53;5099733;28;20191;-60
2021/06/26 13:02:11;;;;;;;3.40;3.20;;;;;;;26.38;45.57;96860.84;5090554;28;20684;-60
2021/06/26 13:04:47;;;;;;;3.30;3.10;;;;;;;27.13;43.93;96854.44;5106073;28;20203;-59
2021/06/26 13:07:24;;;;;;;3.83;3.53;;;;;;;27.35;42.48;96858.66;5105310;28;20243;-59
2021/06/26 13:09:53;;;;;;;3.47;3.17;;;;;;;26.68;44.69;96861.59;5094373;28;20180;-59
2021/06/26 13:12:22;;;;;;;3.88;3.58;;;;;;;26.87;42.77;96857.34;5098368;28;20187;-59
2021/06/26 13:14:57;;;;;;;3.13;2.88;;;;;;;26.99;43.26;96862.00;5099306;28;20694;-59
2021/06/26 13:17:24;;;;;;;3.63;3.35;;;;;;;26.55;42.51;96860.75;5100299;28;20177;-60
2021/06/26 13:19:52;;;;;;;3.00;2.80;;;;;;;26.39;43.36;96859.75;5095306;28;20182;-60
2021/06/26 13:22:20;;;;;;;3.08;2.88;;;;;;;26.15;42.37;96864.91;5101277;28;20196;-60
2021/06/26 13:24:48;;;;;;;3.35;3.13;;;;;;;26.40;42.40;96858.63;5092621;28;20183;-59
2021/06/26 13:27:13;;;;;;;2.90;2.70;;;;;;;26.46;42.19;96860.81;5109687;28;20180;-59
2021/06/26 13:29:39;;;;;;;2.90;2.70;;;;;;;26.67;41.35;96860.81;5097427;28;20246;-59
2021/06/26 13:32:05;;;;;;;2.92;2.72;;;;;;;27.37;39.54;96853.69;5102630;28;20189;-59
2021/06/26 13:34:31;;;;;;;3.50;3.20;;;;;;;26.80;41.46;96857.09;5102036;28;20245;-60
2021/06/26 13:36:56;;;;;;;3.45;3.15;;;;;;;27.09;40.81;96850.03;5095486;28;20241;-60
2021/06/26 13:39:23;;;;;;;2.92;2.67;;;;;;;27.13;40.56;96856.34;5097394;28;20224;-61
2021/06/26 13:41:48;;;;;;;3.15;2.75;;;;;;;27.15;39.58;96851.41;5103266;28;20595;-60
2021/06/26 13:44:14;;;;;;;3.53;2.97;;;;;;;27.63;39.35;96854.25;5102182;28;20211;-59
2021/06/26 13:46:39;;;;;;;2.58;2.45;;;;;;;28.06;38.42;96842.13;5096012;28;20267;-59
2021/06/26 13:49:05;;;;;;;3.15;2.95;;;;;;;27.80;38.92;96850.56;5092146;28;20217;-59
2021/06/26 13:51:30;;;;;;;2.88;2.67;;;;;;;27.38;39.66;96846.41;5093633;28;20211;-59
2021/06/26 13:53:56;;;;;;;3.83;3.53;;;;;;;27.29;42.90;96854.59;5101860;28;20180;-60
2021/06/26 13:56:21;;;;;;;4.20;3.83;;;;;;;27.16;43.87;96850.28;5094320;28;20211;-60
2021/06/26 13:58:47;;;;;;;3.55;3.33;;;;;;;26.93;43.34;96852.56;5094535;28;20232;-59
2021/06/26 14:01:12;;;;;;;3.75;3.45;;;;;;;26.17;45.60;96843.88;5108805;28;20254;-59
2021/06/26 14:03:38;;;;;;;3.63;3.33;;;;;;;25.91;45.63;96842.13;5103285;28;20188;-59
2021/06/26 14:06:03;;;;;;;4.18;3.88;;;;;;;26.35;45.24;96837.31;5107417;28;20546;-60
2021/06/26 14:08:29;;;;;;;3.53;3.33;;;;;;;25.99;45.55;96843.97;5102177;28;20634;-59
2021/06/26 14:10:54;;;;;;;3.90;3.55;;;;;;;26.13;45.65;96838.38;5091884;28;20212;-61
2021/06/26 14:13:21;;;;;;;3.67;3.38;;;;;;;25.90;44.47;96839.78;5109781;28;20180;-59
2021/06/26 14:15:47;;;;;;;3.63;3.35;;;;;;;25.89;44.75;96833.59;5104124;28;20196;-59
2021/06/26 14:18:13;;;;;;;3.50;3.28;;;;;;;25.81;45.28;96829.06;5094685;28;20204;-59
2021/06/26 14:20:38;;;;;;;3.30;3.10;;;;;;;25.77;45.51;96828.13;5104868;28;20418;-59
2021/06/26 14:23:04;;;;;;;3.60;3.30;;;;;;;26.27;44.22;96822.03;5098683;28;20267;-60
2021/06/26 14:25:30;;;;;;;3.65;3.17;;;;;;;26.74;43.02;96818.03;5110290;28;20191;-59
2021/06/26 14:27:55;;;;;;;3.53;3.28;;;;;;;27.12;42.87;96814.41;5094684;28;20181;-61
2021/06/26 14:30:21;;;;;;;3.40;3.10;;;;;;;26.80;43.55;96818.63;5093981;28;20189;-59
2021/06/26 14:32:48;;;;;;;3.40;3.10;;;;;;;25.97;44.39;96819.31;5102529;28;20268;-59
2021/06/26 14:35:14;;;;;;;3.55;3.25;;;;;;;25.54;45.53;96824.09;5106314;28;20190;-58
2021/06/26 14:37:39;;;;;;;3.90;3.50;;;;;;;25.51;46.37;96819.38;5107567;28;20228;-59
2021/06/26 14:40:07;;;;;;;3.88;3.58;;;;;;;25.48;46.65;96817.31;5093641;28;20177;-59
2021/06/26 14:42:32;;;;;;;3.65;3.35;;;;;;;25.24;46.82;96807.91;5102213;28;20656;-58
2021/06/26 14:44:58;;;;;;;4.10;3.80;;;;;;;25.21;47.30;96810.44;5110363;28;20186;-58
2021/06/26 14:47:23;;;;;;;4.43;3.20;;;;;;;25.30;46.50;96805.06;5110868;28;20593;-58
2021/06/26 14:49:51;;;;;;;3.38;3.17;;;;;;;25.59;45.72;96802.47;5109463;28;20259;-58
2021/06/26 14:52:16;;;;;;;3.83;3.53;;;;;;;25.21;47.64;96808.56;5093459;28;21021;-58
2021/06/26 14:54:41;;;;;;;3.60;3.33;;;;;;;25.21;47.80;96803.19;5103214;28;20259;-59
2021/06/26 14:57:07;;;;;;;3.50;3.20;;;;;;;25.55;47.07;96796.91;5100909;28;20617;-58
2021/06/26 14:59:33;;;;;;;3.78;3.28;;;;;;;25.40;45.99;96808.19;5093174;28;20205;-58
2021/06/26 15:01:58;;;;;;;3.65;3.35;;;;;;;25.36;45.94;96796.50;5096393;28;20186;-59
2021/06/26 15:04:24;;;;;;;3.45;3.15;;;;;;;25.88;45.37;96790.94;5094400;28;20182;-59
2021/06/26 15:06:49;;;;;;;3.60;3.30;;;;;;;26.12;44.04;96779.59;5104959;28;20187;-59
2021/06/26 15:09:15;;;;;;;3.00;2.80;;;;;;;26.53;43.29;96782.28;5111937;28;20218;-59
2021/06/26 15:11:40;;;;;;;4.68;3.35;;;;;;;26.99;42.97;96775.91;5102319;28;20184;-61
2021/06/26 15:14:06;;;;;;;3.25;3.05;;;;;;;27.26;42.54;96767.19;5098468;28;20255;-59
2021/06/26 15:16:31;;;;;;;3.38;3.08;;;;;;;27.73;41.24;96774.13;5095942;28;20211;-59
2021/06/26 15:18:57;;;;;;;3.15;2.85;;;;;;;27.53;41.38;96776.56;5104954;28;20204;-61
2021/06/26 15:21:23;;;;;;;3.15;2.88;;;;;;;27.37;42.50;96774.84;5096062;28;20271;-59
2021/06/26 15:23:49;;;;;;;3.53;3.22;;;;;;;27.33;42.34;96776.63;5104287;28;20188;-60
2021/06/26 15:26:14;;;;;;;3.55;3.28;;;;;;;27.06;42.39;96775.34;5107185;28;20184;-59
2021/06/26 15:28:40;;;;;;;4.22;3.08;;;;;;;26.70;43.68;96781.34;5111375;28;20184;-59
2021/06/26 15:31:05;;;;;;;3.30;3.10;;;;;;;26.72;44.36;96771.84;5090259;28;20184;-59
2021/06/26 15:33:30;;;;;;;4.03;3.63;;;;;;;26.58;42.89;96776.75;5109089;28;20176;-59
2021/06/26 15:35:56;;;;;;;3.47;3.22;;;;;;;26.34;44.13;96773.94;5096681;28;20229;-62
2021/06/26 15:38:27;;;;;;;3.80;3.10;;;;;;;25.93;45.12;96780.00;5095287;28;20281;-60
2021/06/26 15:40:54;;;;;;;4.38;3.80;;;;;;;26.16;45.06;96775.13;5093577;28;20192;-59
2021/06/26 15:43:19;;;;;;;3.28;3.08;;;;;;;26.28;44.73;96777.91;5107485;28;20188;-60
2021/06/26 15:45:45;;;;;;;3.72;3.35;;;;;;;26.03;45.06;96777.72;5101866;28;20468;-59
2021/06/26 15:48:11;;;;;;;6.50;4.30;;;;;;;25.84;46.05;96774.69;5107032;28;20593;-59
2021/06/26 15:50:36;;;;;;;3.38;3.13;;;;;;;25.97;45.61;96775.59;5089894;28;20188;-59
2021/06/26 15:53:03;;;;;;;3.13;2.92;;;;;;;26.11;44.96;96767.25;5104351;28;20194;-59
2021/06/26 15:55:28;;;;;;;3.97;3.10;;;;;;;26.07;45.44;96777.88;5109845;28;20278;-59
2021/06/26 15:57:54;;;;;;;3.75;3.45;;;;;;;26.05;45.51;96775.53;5096163;28;20307;-61
2021/06/26 16:00:19;;;;;;;3.58;3.28;;;;;;;26.49;44.66;96768.72;5103558;28;20544;-59
2021/06/26 16:02:45;;;;;;;3.95;3.65;;;;;;;26.68;44.16;96764.78;5103474;28;20265;-59
2021/06/26 16:05:11;;;;;;;3.70;3.40;;;;;;;26.56;44.07;96767.41;5095378;28;20184;-59
2021/06/26 16:07:37;;;;;;;3.65;3.35;;;;;;;26.84;43.00;96766.53;5108203;28;20187;-59
2021/06/26 16:10:07;;;;;;;3.40;3.20;;;;;;;26.75;42.71;96759.66;5091440;28;20276;-59
2021/06/26 16:12:33;;;;;;;3.80;3.50;;;;;;;27.02;42.93;96756.41;5101791;28;20639;-59
2021/06/26 16:14:58;;;;;;;3.50;3.30;;;;;;;26.91;43.68;96754.47;5088709;28;20180;-60
2021/06/26 16:17:24;;;;;;;3.13;2.92;;;;;;;26.48;43.83;96755.59;5085900;28;20669;-60
2021/06/26 16:19:49;;;;;;;4.15;3.70;;;;;;;26.36;44.29;96753.66;5091791;28;20577;-59
2021/06/26 16:22:15;;;;;;;3.47;3.22;;;;;;;26.32;42.95;96754.63;5098056;28;20176;-59
2021/06/26 16:24:42;;;;;;;3.50;3.30;;;;;;;26.07;42.89;96753.69;5101421;28;20482;-59
2021/06/26 16:27:09;;;;;;;2.90;2.70;;;;;;;25.83;42.60;96737.41;5105528;28;20179;-58
2021/06/26 16:29:35;;;;;;;3.65;3.35;;;;;;;25.89;44.20;96744.97;5109629;28;20215;-58
2021/06/26 16:32:02;;;;;;;3.30;3.10;;;;;;;25.80;44.63;96732.72;5096121;28;20216;-59
2021/06/26 16:34:27;;;;;;;3.70;3.40;;;;;;;25.76;44.27;96732.56;5093127;28;20672;-59
2021/06/26 16:36:53;;;;;;;3.60;3.33;;;;;;;25.51;45.27;96731.56;5098116;28;20260;-60
2021/06/26 16:39:24;;;;;;;3.47;3.17;;;;;;;25.43;45.65;96731.59;5106644;28;20717;-58
2021/06/26 16:41:50;;;;;;;4.05;3.72;;;;;;;25.20;46.33;96729.16;5074578;28;20192;-59
2021/06/26 16:44:15;;;;;;;3.72;3.38;;;;;;;24.88;46.91;96732.44;5071933;28;20184;-58
2021/06/26 16:46:41;;;;;;;4.18;3.53;;;;;;;24.77;47.50;96725.81;5098303;28;20540;-58
2021/06/26 16:49:06;;;;;;;4.00;3.70;;;;;;;25.07;48.09;96724.81;5105107;28;20236;-58
2021/06/26 16:51:32;;;;;;;4.35;3.55;;;;;;;25.18;48.03;96731.41;5109125;28;20629;-59
2021/06/26 16:53:57;;;;;;;3.80;3.50;;;;;;;25.08;48.44;96728.25;5091638;28;20181;-61
2021/06/26 16:56:23;;;;;;;3.95;3.58;;;;;;;25.02;48.73;96726.88;5096852;28;20212;-59
2021/06/26 16:58:48;;;;;;;4.03;3.58;;;;;;;25.10;48.16;96726.84;5089735;28;20636;-59
2021/06/26 17:01:14;;;;;;;3.85;3.55;;;;;;;24.87;48.64;96733.50;5093310;28;20189;-59
2021/06/26 17:03:41;;;;;;;3.80;3.47;;;;;;;24.67;48.92;96729.63;5095619;28;20184;-59
2021/06/26 17:06:07;;;;;;;3.75;3.45;;;;;;;24.53;49.12;96731.66;5113964;28;20176;-59
2021/06/26 17:08:32;;;;;;;3.55;3.25;;;;;;;24.41;49.67;96728.84;5106118;28;20588;-60
2021/06/26 17:10:57;;;;;;;3.70;3.40;;;;;;;24.44;50.51;96733.59;5106444;28;20180;-61
2021/06/26 17:13:24;;;;;;;4.18;3.88;;;;;;;24.63;49.51;96728.66;5106277;28;20604;-60
2021/06/26 17:15:51;;;;;;;3.85;3.53;;;;;;;24.22;49.99;96720.34;5088504;28;20188;-59
2021/06/26 17:18:18;;;;;;;4.07;3.78;;;;;;;24.27;50.37;96720.97;5097559;28;20203;-59
2021/06/26 17:20:45;;;;;;;4.40;4.00;;;;;;;24.31;50.28;96721.91;5102962;28;20189;-60
2021/06/26 17:23:11;;;;;;;4.10;3.80;;;;;;;24.41;50.24;96718.91;5093572;28;20188;-60
2021/06/26 17:25:37;;;;;;;5.13;3.90;;;;;;;24.13;50.38;96722.22;5107248;28;20207;-60
2021/06/26 17:28:03;;;;;;;4.20;3.83;;;;;;;24.43;50.29;96716.72;5105038;28;20185;-60
2021/06/26 17:30:28;;;;;;;3.92;3.53;;;;;;;24.38;50.37;96724.13;5104228;28;20683;-61
2021/06/26 17:32:54;;;;;;;3.70;3.40;;;;;;;24.32;50.34;96728.06;5113721;28;20180;-60
2021/06/26 17:35:19;;;;;;;5.55;3.58;;;;;;;24.33;50.34;96718.94;5112807;28;20184;-60
2021/06/26 17:37:45;;;;;;;4.32;4.00;;;;;;;24.32;49.91;96725.38;5106495;28;20235;-60
2021/06/26 17:40:11;;;;;;;4.03;3.50;;;;;;;24.10;50.54;96725.50;5098937;28;20245;-60
2021/06/26 17:42:38;;;;;;;4.63;3.88;;;;;;;24.31;50.77;96721.91;5105621;28;20184;-61
2021/06/26 17:45:06;;;;;;;4.47;4.07;;;;;;;24.37;50.41;96717.19;5098161;28;20644;-62
2021/06/26 17:47:31;;;;;;;4.28;3.88;;;;;;;24.25;50.96;96719.72;5110244;28;20237;-61
2021/06/26 17:49:56;;;;;;;5.38;4.38;;;;;;;24.48;50.75;96720.31;5101535;28;20220;-61
2021/06/26 17:52:22;;;;;;;5.15;4.65;;;;;;;24.31;51.51;96721.13;5096765;28;20188;-62
2021/06/26 17:54:47;;;;;;;4.55;4.15;;;;;;;24.21;51.71;96727.59;5093996;28;20177;-60
2021/06/26 17:57:13;;;;;;;5.10;4.60;;;;;;;24.31;51.93;96724.59;5094679;28;20197;-61
2021/06/26 17:59:38;;;;;;;4.90;4.50;;;;;;;24.14;52.92;96726.44;5105257;28;20570;-60
2021/06/26 18:02:04;;;;;;;4.82;4.38;;;;;;;24.13;53.20;96730.25;5098788;28;20191;-61
2021/06/26 18:04:29;;;;;;;5.22;4.72;;;;;;;24.29;53.58;96731.38;5092209;28;20199;-60
2021/06/26 18:06:55;;;;;;;4.88;4.47;;;;;;;24.18;53.29;96722.88;5103579;28;20215;-60
2021/06/26 18:09:20;;;;;;;5.45;4.88;;;;;;;24.22;53.44;96726.50;5101717;28;20269;-60
2021/06/26 18:11:46;;;;;;;5.45;4.75;;;;;;;24.30;54.13;96727.59;5107844;28;20180;-60
2021/06/26 18:14:14;;;;;;;6.10;4.47;;;;;;;24.35;53.53;96724.78;5104260;28;20192;-61
2021/06/26 18:16:41;;;;;;;7.13;4.72;;;;;;;23.84;54.55;96731.66;5093777;28;20697;-60
2021/06/26 18:19:06;;;;;;;4.72;4.25;;;;;;;23.81;55.09;96736.81;5098088;28;20203;-60
2021/06/26 18:21:32;;;;;;;4.80;4.40;;;;;;;23.78;54.80;96748.16;5091685;28;20180;-61
2021/06/26 18:23:57;;;;;;;5.70;5.00;;;;;;;23.88;54.82;96745.97;5099440;28;20191;-60
2021/06/26 18:26:23;;;;;;;5.25;4.75;;;;;;;24.14;54.64;96750.56;5091062;28;20188;-60
2021/06/26 18:28:49;;;;;;;5.05;4.65;;;;;;;24.20;54.80;96752.81;5103546;28;20192;-60
2021/06/26 18:31:14;;;;;;;5.15;4.38;;;;;;;23.99;54.66;96749.94;5101307;28;20219;-60
2021/06/26 18:33:39;;;;;;;5.53;4.80;;;;;;;23.77;55.91;96752.72;5101082;28;20254;-60
2021/06/26 18:36:05;;;;;;;5.20;4.70;;;;;;;23.86;55.56;96752.72;5102284;28;20668;-61
2021/06/26 18:38:31;;;;;;;5.15;4.65;;;;;;;23.63;56.22;96755.50;5107562;28;20236;-60
2021/06/26 18:40:56;;;;;;;5.07;4.57;;;;;;;23.58;56.31;96750.31;5102623;28;20184;-61
2021/06/26 18:43:22;;;;;;;4.75;4.35;;;;;;;23.69;55.49;96755.38;5103518;28;20471;-60
2021/06/26 18:45:47;;;;;;;4.88;4.43;;;;;;;23.57;56.45;96762.09;5089466;28;20181;-61
2021/06/26 18:48:12;;;;;;;9.70;4.38;;;;;;;23.52;56.11;96761.44;5091748;28;20184;-62
2021/06/26 18:50:38;;;;;;;5.13;4.63;;;;;;;23.32;56.96;96762.00;5104198;28;20188;-61
2021/06/26 18:53:04;;;;;;;5.38;4.88;;;;;;;23.36;57.26;96761.06;5102745;28;20185;-62
2021/06/26 18:55:30;;;;;;;4.65;4.25;;;;;;;23.36;57.10;96760.25;5094024;28;20641;-60
2021/06/26 18:57:55;;;;;;;4.90;4.50;;;;;;;23.25;57.89;96758.97;5095825;28;20204;-60
2021/06/26 19:00:21;;;;;;;5.65;4.90;;;;;;;23.15;58.06;96757.34;5103627;28;20180;-60
2021/06/26 19:02:47;;;;;;;5.40;4.88;;;;;;;23.23;58.10;96747.78;5105250;28;20189;-60
2021/06/26 19:05:15;;;;;;;5.70;5.13;;;;;;;23.12;58.52;96749.94;5102506;28;20203;-60
2021/06/26 19:07:41;;;;;;;5.13;4.72;;;;;;;22.72;58.80;96743.75;5108466;28;20192;-60
2021/06/26 19:10:19;;;;;;;5.20;4.70;;;;;;;22.75;60.01;96749.25;5095355;28;20187;-62
2021/06/26 19:12:46;;;;;;;5.75;5.22;;;;;;;22.64;60.29;96755.13;5105905;28;20274;-60
2021/06/26 19:15:15;;;;;;;5.45;4.95;;;;;;;22.49;61.15;96750.94;5099820;28;20188;-61
2021/06/26 19:17:40;;;;;;;5.53;5.03;;;;;;;22.43;61.09;96752.16;5107766;28;20656;-60
2021/06/26 19:20:07;;;;;;;6.13;5.53;;;;;;;22.42;61.73;96753.25;5100810;28;20187;-62
2021/06/26 19:22:34;;;;;;;5.25;4.82;;;;;;;22.47;61.92;96752.34;5092868;28;20646;-62
2021/06/26 19:24:59;;;;;;;5.88;4.95;;;;;;;22.52;61.58;96754.88;5100427;28;20628;-60
2021/06/26 19:27:25;;;;;;;5.40;4.90;;;;;;;22.27;62.37;96758.94;5090403;28;20173;-60
2021/06/26 19:29:50;;;;;;;5.38;4.88;;;;;;;22.09;62.85;96758.00;5108700;28;20211;-61
2021/06/26 19:32:16;;;;;;;6.00;4.95;;;;;;;22.07;63.08;96765.50;5102786;28;20184;-60
2021/06/26 19:34:43;;;;;;;6.07;5.10;;;;;;;22.19;62.81;96768.44;5111757;28;20176;-61
2021/06/26 19:37:09;;;;;;;6.25;5.53;;;;;;;22.33;62.08;96763.88;5100779;28;20226;-61
2021/06/26 19:39:34;;;;;;;5.72;5.22;;;;;;;22.27;62.65;96777.66;5095956;28;20205;-60
2021/06/26 19:42:00;;;;;;;6.30;5.70;;;;;;;21.91;63.83;96772.25;5091617;28;20683;-61
2021/06/26 19:44:25;;;;;;;6.40;5.80;;;;;;;21.87;64.02;96780.06;5106597;28;20259;-60
2021/06/26 19:46:50;;;;;;;6.13;5.53;;;;;;;21.92;64.20;96779.16;5095247;28;20265;-60
2021/06/26 19:49:21;;;;;;;6.53;5.93;;;;;;;22.07;64.08;96788.78;5095281;28;20257;-62
2021/06/26 19:51:46;;;;;;;6.07;5.40;;;;;;;22.16;63.89;96785.09;5104261;28;20183;-61
2021/06/26 19:54:12;;;;;;;6.13;5.50;;;;;;;22.01;64.05;96785.44;5094922;28;20287;-61
2021/06/26 19:56:37;;;;;;;6.18;5.57;;;;;;;21.74;65.09;96788.88;5108114;28;20184;-60
2021/06/26 19:59:03;;;;;;;5.70;5.07;;;;;;;21.68;65.60;96787.38;5103543;28;20242;-60
2021/06/26 20:01:28;;;;;;;5.95;5.35;;;;;;;21.77;65.05;96790.16;5109301;28;20270;-61
2021/06/26 20:03:54;;;;;;;6.80;5.13;;;;;;;21.65;65.46;96793.31;5107797;28;20576;-61
2021/06/26 20:06:19;;;;;;;6.32;5.72;;;;;;;21.64;66.05;96793.63;5107445;28;20181;-60
2021/06/26 20:08:45;;;;;;;5.80;5.30;;;;;;;21.43;66.30;96787.88;5097882;28;20267;-61